sensor_id;sensor_type;location;lat;lon;timestamp;temperature;humidity
15296;DHT22;7749;49.964;7.890;2023-02-28T00:01:44;1.60;99.90
15296;DHT22;7749;49.964;7.890;2023-02-28T00:04:11;1.60;99.90
15296;DHT22;7749;49.964;7.890;2023-02-28T00:06:39;1.60;99.90
15296;DHT22;7749;49.964;7.890;2023-02-28T00:09:09;1.60;99.90
15296;DHT22;7749;49.964;7.890;2023-02-28T00:11:37;1.70;99.90
15296;DHT22;7749;49.964;7.890;2023-02-28T00:14:05;1.60;99.90
15296;DHT22;7749;49.964;7.890;2023-02-28T00:16:32;1.60;99.90
15296;DHT22;7749;49.964;7.890;2023-02-28T00:19:00;1.60;99.90
15296;DHT22;7749;49.964;7.890;2023-02-28T00:21:28;1.60;99.90
15296;DHT22;7749;49.964;7.890;2023-02-28T00:23:56;1.60;99.90
15296;DHT22;7749;49.964;7.890;2023-02-28T00:26:23;1.60;99.90
15296;DHT22;7749;49.964;7.890;2023-02-28T00:28:52;1.50;99.90
15296;DHT22;7749;49.964;7.890;2023-02-28T00:31:20;1.30;99.90
15296;DHT22;7749;49.964;7.890;2023-02-28T00:33:47;1.40;99.90
15296;DHT22;7749;49.964;7.890;2023-02-28T00:36:15;1.40;99.90
15296;DHT22;7749;49.964;7.890;2023-02-28T00:38:43;1.40;99.90
15296;DHT22;7749;49.964;7.890;2023-02-28T00:41:10;1.40;99.90
15296;DHT22;7749;49.964;7.890;2023-02-28T00:43:41;1.50;99.90
15296;DHT22;7749;49.964;7.890;2023-02-28T00:46:10;1.50;99.90
15296;DHT22;7749;49.964;7.890;2023-02-28T00:48:37;1.50;99.90
15296;DHT22;7749;49.964;7.890;2023-02-28T00:51:08;1.60;99.90
15296;DHT22;7749;49.964;7.890;2023-02-28T00:53:36;1.50;99.90
15296;DHT22;7749;49.964;7.890;2023-02-28T00:56:03;1.60;99.90
15296;DHT22;7749;49.964;7.890;2023-02-28T00:58:31;1.70;99.90
15296;DHT22;7749;49.964;7.890;2023-02-28T01:00:59;1.60;99.90
15296;DHT22;7749;49.964;7.890;2023-02-28T01:03:27;1.70;99.90
15296;DHT22;7749;49.964;7.890;2023-02-28T01:05:54;1.70;99.90
15296;DHT22;7749;49.964;7.890;2023-02-28T01:08:22;1.70;99.90
15296;DHT22;7749;49.964;7.890;2023-02-28T01:10:50;1.70;99.90
15296;DHT22;7749;49.964;7.890;2023-02-28T01:13:18;1.60;99.90
15296;DHT22;7749;49.964;7.890;2023-02-28T01:15:50;1.70;99.90
15296;DHT22;7749;49.964;7.890;2023-02-28T01:18:19;1.70;99.90
15296;DHT22;7749;49.964;7.890;2023-02-28T01:20:47;1.60;99.90
15296;DHT22;7749;49.964;7.890;2023-02-28T01:23:15;1.60;99.90
15296;DHT22;7749;49.964;7.890;2023-02-28T01:25:42;1.60;99.90
15296;DHT22;7749;49.964;7.890;2023-02-28T01:28:10;1.70;99.90
15296;DHT22;7749;49.964;7.890;2023-02-28T01:30:37;1.70;99.90
15296;DHT22;7749;49.964;7.890;2023-02-28T01:33:05;1.70;99.90
15296;DHT22;7749;49.964;7.890;2023-02-28T01:35:34;1.70;99.90
15296;DHT22;7749;49.964;7.890;2023-02-28T01:38:02;1.70;99.90
15296;DHT22;7749;49.964;7.890;2023-02-28T01:40:47;1.70;99.90
15296;DHT22;7749;49.964;7.890;2023-02-28T01:43:24;1.70;99.90
15296;DHT22;7749;49.964;7.890;2023-02-28T01:45:53;1.70;99.90
15296;DHT22;7749;49.964;7.890;2023-02-28T01:48:30;1.80;99.90
15296;DHT22;7749;49.964;7.890;2023-02-28T01:51:05;1.80;99.90
15296;DHT22;7749;49.964;7.890;2023-02-28T01:53:43;1.70;99.90
15296;DHT22;7749;49.964;7.890;2023-02-28T01:56:13;1.70;99.90
15296;DHT22;7749;49.964;7.890;2023-02-28T01:58:52;1.60;99.90
15296;DHT22;7749;49.964;7.890;2023-02-28T02:01:21;1.60;99.90
15296;DHT22;7749;49.964;7.890;2023-02-28T02:03:53;1.50;99.90
15296;DHT22;7749;49.964;7.890;2023-02-28T02:06:44;1.40;99.90
15296;DHT22;7749;49.964;7.890;2023-02-28T02:09:13;1.40;99.90
15296;DHT22;7749;49.964;7.890;2023-02-28T02:11:44;1.40;99.90
15296;DHT22;7749;49.964;7.890;2023-02-28T02:15:08;1.40;99.90
15296;DHT22;7749;49.964;7.890;2023-02-28T02:17:36;1.30;99.90
15296;DHT22;7749;49.964;7.890;2023-02-28T02:20:32;1.30;99.90
15296;DHT22;7749;49.964;7.890;2023-02-28T02:23:51;1.30;99.90
15296;DHT22;7749;49.964;7.890;2023-02-28T02:37:50;0.90;99.90
15296;DHT22;7749;49.964;7.890;2023-02-28T02:40:43;0.80;99.90
15296;DHT22;7749;49.964;7.890;2023-02-28T02:43:22;0.90;99.90
15296;DHT22;7749;49.964;7.890;2023-02-28T02:45:56;0.70;99.90
15296;DHT22;7749;49.964;7.890;2023-02-28T02:48:29;0.80;99.90
15296;DHT22;7749;49.964;7.890;2023-02-28T02:51:00;0.70;99.90
15296;DHT22;7749;49.964;7.890;2023-02-28T02:53:33;0.70;99.90
15296;DHT22;7749;49.964;7.890;2023-02-28T02:56:03;0.70;99.90
15296;DHT22;7749;49.964;7.890;2023-02-28T02:58:40;0.70;99.90
15296;DHT22;7749;49.964;7.890;2023-02-28T03:01:18;0.70;99.90
15296;DHT22;7749;49.964;7.890;2023-02-28T03:04:08;0.70;99.90
15296;DHT22;7749;49.964;7.890;2023-02-28T03:06:36;0.60;99.90
15296;DHT22;7749;49.964;7.890;2023-02-28T03:09:05;0.60;99.90
15296;DHT22;7749;49.964;7.890;2023-02-28T03:11:35;0.60;99.90
15296;DHT22;7749;49.964;7.890;2023-02-28T03:25:21;0.50;99.90
15296;DHT22;7749;49.964;7.890;2023-02-28T03:28:02;0.50;99.90
15296;DHT22;7749;49.964;7.890;2023-02-28T03:30:34;0.40;99.90
15296;DHT22;7749;49.964;7.890;2023-02-28T03:33:15;0.40;99.90
15296;DHT22;7749;49.964;7.890;2023-02-28T03:38:20;0.30;99.90
15296;DHT22;7749;49.964;7.890;2023-02-28T03:40:53;0.30;99.90
15296;DHT22;7749;49.964;7.890;2023-02-28T03:43:27;0.30;99.90
15296;DHT22;7749;49.964;7.890;2023-02-28T03:45:56;0.30;99.90
15296;DHT22;7749;49.964;7.890;2023-02-28T03:48:32;0.30;99.90
15296;DHT22;7749;49.964;7.890;2023-02-28T03:51:07;0.30;99.90
15296;DHT22;7749;49.964;7.890;2023-02-28T03:53:44;0.30;99.90
15296;DHT22;7749;49.964;7.890;2023-02-28T03:58:58;0.30;99.90
15296;DHT22;7749;49.964;7.890;2023-02-28T04:01:36;0.30;99.90
15296;DHT22;7749;49.964;7.890;2023-02-28T04:04:05;0.30;99.90
15296;DHT22;7749;49.964;7.890;2023-02-28T04:06:39;0.40;99.90
15296;DHT22;7749;49.964;7.890;2023-02-28T04:09:09;0.40;99.90
15296;DHT22;7749;49.964;7.890;2023-02-28T04:11:41;0.40;99.90
15296;DHT22;7749;49.964;7.890;2023-02-28T04:14:10;0.50;99.90
15296;DHT22;7749;49.964;7.890;2023-02-28T04:16:40;0.50;99.90
15296;DHT22;7749;49.964;7.890;2023-02-28T04:19:11;0.60;99.90
15296;DHT22;7749;49.964;7.890;2023-02-28T04:21:44;0.60;99.90
15296;DHT22;7749;49.964;7.890;2023-02-28T04:24:26;0.60;99.90
15296;DHT22;7749;49.964;7.890;2023-02-28T04:26:56;0.60;99.90
15296;DHT22;7749;49.964;7.890;2023-02-28T04:29:32;0.50;99.90
15296;DHT22;7749;49.964;7.890;2023-02-28T04:32:01;0.50;99.90
15296;DHT22;7749;49.964;7.890;2023-02-28T04:34:32;0.60;99.90
15296;DHT22;7749;49.964;7.890;2023-02-28T04:37:04;0.70;99.90
15296;DHT22;7749;49.964;7.890;2023-02-28T04:39:41;0.70;99.90
15296;DHT22;7749;49.964;7.890;2023-02-28T04:42:10;0.70;99.90
15296;DHT22;7749;49.964;7.890;2023-02-28T04:44:37;0.70;99.90
15296;DHT22;7749;49.964;7.890;2023-02-28T04:47:05;0.60;99.90
15296;DHT22;7749;49.964;7.890;2023-02-28T04:49:33;0.70;99.90
15296;DHT22;7749;49.964;7.890;2023-02-28T04:52:01;0.70;99.90
15296;DHT22;7749;49.964;7.890;2023-02-28T04:54:29;0.70;99.90
15296;DHT22;7749;49.964;7.890;2023-02-28T04:56:57;0.70;99.90
15296;DHT22;7749;49.964;7.890;2023-02-28T04:59:24;0.70;99.90
15296;DHT22;7749;49.964;7.890;2023-02-28T05:01:52;0.70;99.90
15296;DHT22;7749;49.964;7.890;2023-02-28T05:04:20;0.70;99.90
15296;DHT22;7749;49.964;7.890;2023-02-28T05:06:48;0.70;99.90
15296;DHT22;7749;49.964;7.890;2023-02-28T05:09:15;0.60;99.90
15296;DHT22;7749;49.964;7.890;2023-02-28T05:11:43;0.50;99.90
15296;DHT22;7749;49.964;7.890;2023-02-28T05:14:13;0.50;99.90
15296;DHT22;7749;49.964;7.890;2023-02-28T05:16:43;0.50;99.90
15296;DHT22;7749;49.964;7.890;2023-02-28T05:19:11;0.40;99.90
15296;DHT22;7749;49.964;7.890;2023-02-28T05:21:41;0.60;99.90
15296;DHT22;7749;49.964;7.890;2023-02-28T05:24:11;0.50;99.90
15296;DHT22;7749;49.964;7.890;2023-02-28T05:26:41;0.40;99.90
15296;DHT22;7749;49.964;7.890;2023-02-28T05:29:10;0.40;99.90
15296;DHT22;7749;49.964;7.890;2023-02-28T05:31:38;0.40;99.90
15296;DHT22;7749;49.964;7.890;2023-02-28T05:34:05;0.40;99.90
15296;DHT22;7749;49.964;7.890;2023-02-28T05:36:33;0.50;99.90
15296;DHT22;7749;49.964;7.890;2023-02-28T05:39:01;0.40;99.90
15296;DHT22;7749;49.964;7.890;2023-02-28T05:41:30;0.50;99.90
15296;DHT22;7749;49.964;7.890;2023-02-28T05:43:58;0.50;99.90
15296;DHT22;7749;49.964;7.890;2023-02-28T05:46:27;0.50;99.90
15296;DHT22;7749;49.964;7.890;2023-02-28T05:48:55;0.30;99.90
15296;DHT22;7749;49.964;7.890;2023-02-28T05:51:25;0.40;99.90
15296;DHT22;7749;49.964;7.890;2023-02-28T05:53:53;0.40;99.90
15296;DHT22;7749;49.964;7.890;2023-02-28T05:56:20;0.40;99.90
15296;DHT22;7749;49.964;7.890;2023-02-28T05:58:48;0.50;99.90
15296;DHT22;7749;49.964;7.890;2023-02-28T06:01:23;0.50;99.90
15296;DHT22;7749;49.964;7.890;2023-02-28T06:03:55;0.50;99.90
15296;DHT22;7749;49.964;7.890;2023-02-28T06:06:23;0.50;99.90
15296;DHT22;7749;49.964;7.890;2023-02-28T06:08:50;0.60;99.90
15296;DHT22;7749;49.964;7.890;2023-02-28T06:11:18;0.50;99.90
15296;DHT22;7749;49.964;7.890;2023-02-28T06:13:47;0.50;99.90
15296;DHT22;7749;49.964;7.890;2023-02-28T06:16:19;0.60;99.90
15296;DHT22;7749;49.964;7.890;2023-02-28T06:18:46;0.60;99.90
15296;DHT22;7749;49.964;7.890;2023-02-28T06:21:14;0.60;99.90
15296;DHT22;7749;49.964;7.890;2023-02-28T06:23:42;0.60;99.90
15296;DHT22;7749;49.964;7.890;2023-02-28T06:26:10;0.60;99.90
15296;DHT22;7749;49.964;7.890;2023-02-28T06:28:38;0.70;99.90
15296;DHT22;7749;49.964;7.890;2023-02-28T06:31:11;0.70;99.90
15296;DHT22;7749;49.964;7.890;2023-02-28T06:33:39;0.70;99.90
15296;DHT22;7749;49.964;7.890;2023-02-28T06:36:08;0.70;99.90
15296;DHT22;7749;49.964;7.890;2023-02-28T06:38:37;0.80;99.90
15296;DHT22;7749;49.964;7.890;2023-02-28T06:41:05;0.80;99.90
15296;DHT22;7749;49.964;7.890;2023-02-28T06:43:36;0.90;99.90
15296;DHT22;7749;49.964;7.890;2023-02-28T06:46:06;0.90;99.90
15296;DHT22;7749;49.964;7.890;2023-02-28T06:48:35;0.80;99.90
15296;DHT22;7749;49.964;7.890;2023-02-28T06:51:08;0.80;99.90
15296;DHT22;7749;49.964;7.890;2023-02-28T06:53:36;0.70;99.90
15296;DHT22;7749;49.964;7.890;2023-02-28T06:56:12;0.70;99.90
15296;DHT22;7749;49.964;7.890;2023-02-28T06:58:46;0.70;99.90
15296;DHT22;7749;49.964;7.890;2023-02-28T07:01:14;0.70;99.90
15296;DHT22;7749;49.964;7.890;2023-02-28T07:03:42;0.70;99.90
15296;DHT22;7749;49.964;7.890;2023-02-28T07:06:10;0.70;99.90
15296;DHT22;7749;49.964;7.890;2023-02-28T07:08:38;0.60;99.90
15296;DHT22;7749;49.964;7.890;2023-02-28T07:11:07;0.70;99.90
15296;DHT22;7749;49.964;7.890;2023-02-28T07:13:37;0.80;99.90
15296;DHT22;7749;49.964;7.890;2023-02-28T07:16:07;0.80;99.90
15296;DHT22;7749;49.964;7.890;2023-02-28T07:18:37;0.90;99.90
15296;DHT22;7749;49.964;7.890;2023-02-28T07:21:07;1.00;99.90
15296;DHT22;7749;49.964;7.890;2023-02-28T07:23:36;1.10;99.90
15296;DHT22;7749;49.964;7.890;2023-02-28T07:26:06;1.20;99.90
15296;DHT22;7749;49.964;7.890;2023-02-28T07:28:34;1.50;99.90
15296;DHT22;7749;49.964;7.890;2023-02-28T07:31:06;1.70;99.90
15296;DHT22;7749;49.964;7.890;2023-02-28T07:33:34;1.90;99.90
15296;DHT22;7749;49.964;7.890;2023-02-28T07:36:03;2.00;99.90
15296;DHT22;7749;49.964;7.890;2023-02-28T07:38:36;2.10;99.90
15296;DHT22;7749;49.964;7.890;2023-02-28T07:41:04;2.30;99.90
15296;DHT22;7749;49.964;7.890;2023-02-28T07:43:32;2.40;99.90
15296;DHT22;7749;49.964;7.890;2023-02-28T07:46:05;2.60;99.90
15296;DHT22;7749;49.964;7.890;2023-02-28T07:48:33;2.60;99.90
15296;DHT22;7749;49.964;7.890;2023-02-28T07:51:02;2.70;99.90
15296;DHT22;7749;49.964;7.890;2023-02-28T07:53:30;2.80;99.90
15296;DHT22;7749;49.964;7.890;2023-02-28T07:55:59;2.90;99.90
15296;DHT22;7749;49.964;7.890;2023-02-28T07:58:29;2.90;99.90
15296;DHT22;7749;49.964;7.890;2023-02-28T08:01:05;2.80;99.90
15296;DHT22;7749;49.964;7.890;2023-02-28T08:03:33;2.90;99.90
15296;DHT22;7749;49.964;7.890;2023-02-28T08:06:03;2.90;99.90
15296;DHT22;7749;49.964;7.890;2023-02-28T08:08:31;3.00;99.90
15296;DHT22;7749;49.964;7.890;2023-02-28T08:11:03;3.00;99.90
15296;DHT22;7749;49.964;7.890;2023-02-28T08:13:30;3.10;99.90
15296;DHT22;7749;49.964;7.890;2023-02-28T08:16:01;3.10;99.90
15296;DHT22;7749;49.964;7.890;2023-02-28T08:18:29;3.10;99.90
15296;DHT22;7749;49.964;7.890;2023-02-28T08:20:56;3.10;99.90
15296;DHT22;7749;49.964;7.890;2023-02-28T08:23:24;3.10;99.90
15296;DHT22;7749;49.964;7.890;2023-02-28T08:25:56;3.20;99.90
15296;DHT22;7749;49.964;7.890;2023-02-28T08:28:24;3.00;99.90
15296;DHT22;7749;49.964;7.890;2023-02-28T08:30:54;3.00;99.90
15296;DHT22;7749;49.964;7.890;2023-02-28T08:33:23;3.00;99.90
15296;DHT22;7749;49.964;7.890;2023-02-28T08:35:55;3.10;99.90
15296;DHT22;7749;49.964;7.890;2023-02-28T08:38:23;3.10;99.90
15296;DHT22;7749;49.964;7.890;2023-02-28T08:41:00;3.10;99.90
15296;DHT22;7749;49.964;7.890;2023-02-28T08:43:29;3.10;99.90
15296;DHT22;7749;49.964;7.890;2023-02-28T08:45:57;3.10;99.90
15296;DHT22;7749;49.964;7.890;2023-02-28T08:48:26;3.20;99.90
15296;DHT22;7749;49.964;7.890;2023-02-28T08:51:01;3.30;99.90
15296;DHT22;7749;49.964;7.890;2023-02-28T08:53:36;3.30;99.90
15296;DHT22;7749;49.964;7.890;2023-02-28T08:56:12;3.40;99.90
15296;DHT22;7749;49.964;7.890;2023-02-28T08:58:40;3.50;99.90
15296;DHT22;7749;49.964;7.890;2023-02-28T09:01:10;3.70;99.90
15296;DHT22;7749;49.964;7.890;2023-02-28T09:03:40;3.80;99.90
15296;DHT22;7749;49.964;7.890;2023-02-28T09:06:12;3.90;99.90
15296;DHT22;7749;49.964;7.890;2023-02-28T09:08:40;3.90;99.90
15296;DHT22;7749;49.964;7.890;2023-02-28T09:11:09;3.80;99.90
15296;DHT22;7749;49.964;7.890;2023-02-28T09:13:37;3.90;99.90
15296;DHT22;7749;49.964;7.890;2023-02-28T09:16:07;3.90;99.90
15296;DHT22;7749;49.964;7.890;2023-02-28T09:18:35;3.90;99.90
15296;DHT22;7749;49.964;7.890;2023-02-28T09:21:06;3.90;99.90
15296;DHT22;7749;49.964;7.890;2023-02-28T09:23:34;3.80;99.90
15296;DHT22;7749;49.964;7.890;2023-02-28T09:26:02;3.80;99.90
15296;DHT22;7749;49.964;7.890;2023-02-28T09:28:30;3.80;99.90
15296;DHT22;7749;49.964;7.890;2023-02-28T09:30:58;3.90;99.90
15296;DHT22;7749;49.964;7.890;2023-02-28T09:33:26;3.90;99.90
15296;DHT22;7749;49.964;7.890;2023-02-28T09:36:01;4.00;99.90
15296;DHT22;7749;49.964;7.890;2023-02-28T09:38:29;4.10;99.90
15296;DHT22;7749;49.964;7.890;2023-02-28T09:41:10;4.10;99.90
15296;DHT22;7749;49.964;7.890;2023-02-28T09:43:43;4.10;99.90
15296;DHT22;7749;49.964;7.890;2023-02-28T09:46:28;4.50;99.90
15296;DHT22;7749;49.964;7.890;2023-02-28T09:49:06;4.50;99.90
15296;DHT22;7749;49.964;7.890;2023-02-28T09:54:21;4.50;99.90
15296;DHT22;7749;49.964;7.890;2023-02-28T09:56:53;4.40;99.90
15296;DHT22;7749;49.964;7.890;2023-02-28T10:02:30;4.80;99.90
15296;DHT22;7749;49.964;7.890;2023-02-28T10:05:13;5.10;99.90
15296;DHT22;7749;49.964;7.890;2023-02-28T10:10:43;4.80;99.90
15296;DHT22;7749;49.964;7.890;2023-02-28T10:13:23;4.90;99.90
15296;DHT22;7749;49.964;7.890;2023-02-28T10:15:59;5.00;99.90
15296;DHT22;7749;49.964;7.890;2023-02-28T10:18:40;4.90;99.90
15296;DHT22;7749;49.964;7.890;2023-02-28T10:21:19;5.00;99.60
15296;DHT22;7749;49.964;7.890;2023-02-28T10:23:48;5.40;99.10
15296;DHT22;7749;49.964;7.890;2023-02-28T10:26:17;5.70;98.90
15296;DHT22;7749;49.964;7.890;2023-02-28T10:28:45;5.90;97.70
15296;DHT22;7749;49.964;7.890;2023-02-28T10:31:18;6.00;96.70
15296;DHT22;7749;49.964;7.890;2023-02-28T10:33:48;5.90;96.70
15296;DHT22;7749;49.964;7.890;2023-02-28T10:36:18;5.60;96.90
15296;DHT22;7749;49.964;7.890;2023-02-28T10:38:47;5.60;96.70
15296;DHT22;7749;49.964;7.890;2023-02-28T10:41:30;5.70;96.40
15296;DHT22;7749;49.964;7.890;2023-02-28T10:46:41;6.10;95.50
15296;DHT22;7749;49.964;7.890;2023-02-28T10:49:28;6.10;95.40
15296;DHT22;7749;49.964;7.890;2023-02-28T10:52:00;6.00;95.20
15296;DHT22;7749;49.964;7.890;2023-02-28T10:54:34;6.00;95.00
15296;DHT22;7749;49.964;7.890;2023-02-28T10:57:25;6.20;94.80
15296;DHT22;7749;49.964;7.890;2023-02-28T11:00:24;6.30;94.70
15296;DHT22;7749;49.964;7.890;2023-02-28T11:02:55;6.70;94.00
15296;DHT22;7749;49.964;7.890;2023-02-28T11:05:36;6.80;93.70
15296;DHT22;7749;49.964;7.890;2023-02-28T11:08:15;6.70;93.20
15296;DHT22;7749;49.964;7.890;2023-02-28T11:11:03;6.50;93.10
15296;DHT22;7749;49.964;7.890;2023-02-28T11:13:33;6.50;92.60
15296;DHT22;7749;49.964;7.890;2023-02-28T11:16:11;6.40;92.40
15296;DHT22;7749;49.964;7.890;2023-02-28T11:18:54;6.50;92.40
15296;DHT22;7749;49.964;7.890;2023-02-28T11:21:27;6.80;92.10
15296;DHT22;7749;49.964;7.890;2023-02-28T11:24:20;9.20;90.60
15296;DHT22;7749;49.964;7.890;2023-02-28T11:26:50;11.90;81.10
15296;DHT22;7749;49.964;7.890;2023-02-28T11:32:13;13.50;61.00
15296;DHT22;7749;49.964;7.890;2023-02-28T11:34:42;13.50;59.60
15296;DHT22;7749;49.964;7.890;2023-02-28T11:37:22;12.10;60.80
15296;DHT22;7749;49.964;7.890;2023-02-28T11:39:53;9.90;64.20
15296;DHT22;7749;49.964;7.890;2023-02-28T11:58:55;14.10;53.10
15296;DHT22;7749;49.964;7.890;2023-02-28T12:07:47;12.80;56.80
15296;DHT22;7749;49.964;7.890;2023-02-28T12:10:27;12.90;54.10
15296;DHT22;7749;49.964;7.890;2023-02-28T12:13:21;13.80;54.80
15296;DHT22;7749;49.964;7.890;2023-02-28T12:26:47;14.90;49.00
15296;DHT22;7749;49.964;7.890;2023-02-28T12:34:35;11.20;54.00
15296;DHT22;7749;49.964;7.890;2023-02-28T12:37:23;11.50;53.70
15296;DHT22;7749;49.964;7.890;2023-02-28T12:40:04;12.50;52.90
15296;DHT22;7749;49.964;7.890;2023-02-28T12:42:40;13.60;50.50
15296;DHT22;7749;49.964;7.890;2023-02-28T12:45:51;14.10;48.00
15296;DHT22;7749;49.964;7.890;2023-02-28T12:50:58;16.80;43.60
15296;DHT22;7749;49.964;7.890;2023-02-28T12:59:38;16.90;40.30
15296;DHT22;7749;49.964;7.890;2023-02-28T13:10:58;17.50;38.50
15296;DHT22;7749;49.964;7.890;2023-02-28T13:13:28;17.90;38.60
15296;DHT22;7749;49.964;7.890;2023-02-28T13:16:05;19.10;37.30
15296;DHT22;7749;49.964;7.890;2023-02-28T13:18:38;19.60;35.10
15296;DHT22;7749;49.964;7.890;2023-02-28T13:21:24;18.60;35.30
15296;DHT22;7749;49.964;7.890;2023-02-28T13:24:01;18.00;37.70
15296;DHT22;7749;49.964;7.890;2023-02-28T13:47:44;19.00;33.00
15296;DHT22;7749;49.964;7.890;2023-02-28T13:50:35;19.30;32.40
15296;DHT22;7749;49.964;7.890;2023-02-28T13:56:18;19.40;32.20
15296;DHT22;7749;49.964;7.890;2023-02-28T14:05:05;19.20;31.90
15296;DHT22;7749;49.964;7.890;2023-02-28T14:07:46;18.60;32.60
15296;DHT22;7749;49.964;7.890;2023-02-28T14:13:12;18.70;32.00
15296;DHT22;7749;49.964;7.890;2023-02-28T14:15:54;18.00;32.10
15296;DHT22;7749;49.964;7.890;2023-02-28T14:18:35;17.70;33.30
15296;DHT22;7749;49.964;7.890;2023-02-28T14:37:46;18.90;31.60
15296;DHT22;7749;49.964;7.890;2023-02-28T14:40:30;19.40;30.80
15296;DHT22;7749;49.964;7.890;2023-02-28T14:43:04;19.50;30.50
15296;DHT22;7749;49.964;7.890;2023-02-28T14:45:34;19.30;30.80
15296;DHT22;7749;49.964;7.890;2023-02-28T14:48:05;20.00;30.30
15296;DHT22;7749;49.964;7.890;2023-02-28T14:50:39;20.40;29.60
15296;DHT22;7749;49.964;7.890;2023-02-28T14:53:20;18.70;30.50
15296;DHT22;7749;49.964;7.890;2023-02-28T14:55:49;18.80;30.90
15296;DHT22;7749;49.964;7.890;2023-02-28T14:58:35;19.50;30.10
15296;DHT22;7749;49.964;7.890;2023-02-28T15:01:10;19.70;30.10
15296;DHT22;7749;49.964;7.890;2023-02-28T15:03:39;20.30;29.40
15296;DHT22;7749;49.964;7.890;2023-02-28T15:06:16;19.80;29.90
15296;DHT22;7749;49.964;7.890;2023-02-28T15:08:45;19.90;30.10
15296;DHT22;7749;49.964;7.890;2023-02-28T15:11:20;19.20;30.60
15296;DHT22;7749;49.964;7.890;2023-02-28T15:13:52;19.40;30.30
15296;DHT22;7749;49.964;7.890;2023-02-28T15:16:34;20.00;29.70
15296;DHT22;7749;49.964;7.890;2023-02-28T15:19:26;19.60;30.20
15296;DHT22;7749;49.964;7.890;2023-02-28T15:22:00;18.40;31.10
15296;DHT22;7749;49.964;7.890;2023-02-28T15:24:41;18.20;31.80
15296;DHT22;7749;49.964;7.890;2023-02-28T15:27:24;18.00;31.20
15296;DHT22;7749;49.964;7.890;2023-02-28T15:29:58;17.30;32.50
15296;DHT22;7749;49.964;7.890;2023-02-28T15:32:35;17.60;32.60
15296;DHT22;7749;49.964;7.890;2023-02-28T15:38:01;15.20;35.10
15296;DHT22;7749;49.964;7.890;2023-02-28T15:40:38;14.30;36.60
15296;DHT22;7749;49.964;7.890;2023-02-28T15:43:14;12.80;39.10
15296;DHT22;7749;49.964;7.890;2023-02-28T15:46:01;11.50;41.80
15296;DHT22;7749;49.964;7.890;2023-02-28T15:48:30;10.50;43.70
15296;DHT22;7749;49.964;7.890;2023-02-28T15:51:04;9.70;45.60
15296;DHT22;7749;49.964;7.890;2023-02-28T15:53:36;9.20;47.60
15296;DHT22;7749;49.964;7.890;2023-02-28T15:56:12;8.80;48.40
15296;DHT22;7749;49.964;7.890;2023-02-28T15:58:45;8.30;49.50
15296;DHT22;7749;49.964;7.890;2023-02-28T16:02:01;8.00;50.50
15296;DHT22;7749;49.964;7.890;2023-02-28T16:04:16;7.80;50.90
15296;DHT22;7749;49.964;7.890;2023-02-28T16:06:45;7.70;51.20
15296;DHT22;7749;49.964;7.890;2023-02-28T16:09:15;7.60;51.80
15296;DHT22;7749;49.964;7.890;2023-02-28T16:11:47;7.50;52.60
15296;DHT22;7749;49.964;7.890;2023-02-28T16:14:21;7.50;52.50
15296;DHT22;7749;49.964;7.890;2023-02-28T16:16:53;7.60;53.00
15296;DHT22;7749;49.964;7.890;2023-02-28T16:19:22;7.70;53.10
15296;DHT22;7749;49.964;7.890;2023-02-28T16:21:50;7.60;53.70
15296;DHT22;7749;49.964;7.890;2023-02-28T16:24:18;7.60;53.20
15296;DHT22;7749;49.964;7.890;2023-02-28T16:26:47;7.60;53.60
15296;DHT22;7749;49.964;7.890;2023-02-28T16:29:25;7.50;53.70
15296;DHT22;7749;49.964;7.890;2023-02-28T16:32:06;7.50;54.10
15296;DHT22;7749;49.964;7.890;2023-02-28T16:34:37;7.50;54.40
15296;DHT22;7749;49.964;7.890;2023-02-28T16:37:11;7.50;54.70
15296;DHT22;7749;49.964;7.890;2023-02-28T16:39:40;7.50;54.70
15296;DHT22;7749;49.964;7.890;2023-02-28T16:42:14;7.50;55.00
15296;DHT22;7749;49.964;7.890;2023-02-28T16:44:43;7.40;55.30
15296;DHT22;7749;49.964;7.890;2023-02-28T16:47:11;7.10;55.60
15296;DHT22;7749;49.964;7.890;2023-02-28T16:49:39;6.90;56.20
15296;DHT22;7749;49.964;7.890;2023-02-28T16:52:12;6.80;56.70
15296;DHT22;7749;49.964;7.890;2023-02-28T16:54:44;6.80;57.30
15296;DHT22;7749;49.964;7.890;2023-02-28T16:57:22;6.60;57.80
15296;DHT22;7749;49.964;7.890;2023-02-28T16:59:50;6.50;58.20
15296;DHT22;7749;49.964;7.890;2023-02-28T17:02:19;6.40;58.80
15296;DHT22;7749;49.964;7.890;2023-02-28T17:04:47;6.40;59.40
15296;DHT22;7749;49.964;7.890;2023-02-28T17:07:16;6.30;59.80
15296;DHT22;7749;49.964;7.890;2023-02-28T17:09:44;6.20;60.60
15296;DHT22;7749;49.964;7.890;2023-02-28T17:12:13;6.20;61.50
15296;DHT22;7749;49.964;7.890;2023-02-28T17:14:41;6.10;62.20
15296;DHT22;7749;49.964;7.890;2023-02-28T17:17:17;6.10;62.50
15296;DHT22;7749;49.964;7.890;2023-02-28T17:19:45;6.00;62.90
15296;DHT22;7749;49.964;7.890;2023-02-28T17:22:13;5.90;64.10
15296;DHT22;7749;49.964;7.890;2023-02-28T17:24:44;5.90;64.70
15296;DHT22;7749;49.964;7.890;2023-02-28T17:27:12;5.80;64.80
15296;DHT22;7749;49.964;7.890;2023-02-28T17:29:40;5.70;65.20
15296;DHT22;7749;49.964;7.890;2023-02-28T17:32:09;5.70;66.10
15296;DHT22;7749;49.964;7.890;2023-02-28T17:34:45;5.60;67.50
15296;DHT22;7749;49.964;7.890;2023-02-28T17:37:13;5.50;69.10
15296;DHT22;7749;49.964;7.890;2023-02-28T17:39:41;5.40;68.90
15296;DHT22;7749;49.964;7.890;2023-02-28T17:42:09;5.40;69.90
15296;DHT22;7749;49.964;7.890;2023-02-28T17:44:36;5.40;70.90
15296;DHT22;7749;49.964;7.890;2023-02-28T17:47:05;5.40;71.30
15296;DHT22;7749;49.964;7.890;2023-02-28T17:49:33;5.30;71.40
15296;DHT22;7749;49.964;7.890;2023-02-28T17:52:00;5.30;71.30
15296;DHT22;7749;49.964;7.890;2023-02-28T17:54:28;5.20;71.30
15296;DHT22;7749;49.964;7.890;2023-02-28T17:56:56;5.10;71.60
15296;DHT22;7749;49.964;7.890;2023-02-28T17:59:23;5.00;72.50
15296;DHT22;7749;49.964;7.890;2023-02-28T18:01:51;5.00;73.50
15296;DHT22;7749;49.964;7.890;2023-02-28T18:04:19;5.00;74.00
15296;DHT22;7749;49.964;7.890;2023-02-28T18:06:46;5.00;74.20
15296;DHT22;7749;49.964;7.890;2023-02-28T18:09:16;5.10;74.50
15296;DHT22;7749;49.964;7.890;2023-02-28T18:11:44;4.90;75.00
15296;DHT22;7749;49.964;7.890;2023-02-28T18:14:20;4.90;75.20
15296;DHT22;7749;49.964;7.890;2023-02-28T18:16:48;4.90;76.00
15296;DHT22;7749;49.964;7.890;2023-02-28T18:19:15;4.80;76.90
15296;DHT22;7749;49.964;7.890;2023-02-28T18:21:49;4.80;77.70
15296;DHT22;7749;49.964;7.890;2023-02-28T18:24:19;4.80;78.80
15296;DHT22;7749;49.964;7.890;2023-02-28T18:26:47;4.60;79.60
15296;DHT22;7749;49.964;7.890;2023-02-28T18:29:18;4.50;80.50
15296;DHT22;7749;49.964;7.890;2023-02-28T18:31:47;4.40;81.40
15296;DHT22;7749;49.964;7.890;2023-02-28T18:34:15;4.40;82.20
15296;DHT22;7749;49.964;7.890;2023-02-28T18:36:43;4.20;83.40
15296;DHT22;7749;49.964;7.890;2023-02-28T18:39:14;4.20;84.30
15296;DHT22;7749;49.964;7.890;2023-02-28T18:41:42;4.10;85.20
15296;DHT22;7749;49.964;7.890;2023-02-28T18:44:09;4.10;86.20
15296;DHT22;7749;49.964;7.890;2023-02-28T18:46:48;4.10;86.80
15296;DHT22;7749;49.964;7.890;2023-02-28T18:49:20;4.00;87.80
15296;DHT22;7749;49.964;7.890;2023-02-28T18:51:48;4.00;89.00
15296;DHT22;7749;49.964;7.890;2023-02-28T18:54:18;3.90;90.60
15296;DHT22;7749;49.964;7.890;2023-02-28T18:56:46;3.90;91.20
15296;DHT22;7749;49.964;7.890;2023-02-28T18:59:14;3.80;92.10
15296;DHT22;7749;49.964;7.890;2023-02-28T19:01:42;3.80;93.50
15296;DHT22;7749;49.964;7.890;2023-02-28T19:04:12;3.70;93.70